createdAt,value
2022-12-03T08:07:44.127Z,11.15
2022-12-03T08:10:12.385Z,12.90
2022-12-03T08:12:45.938Z,15.40
2022-12-03T08:15:14.007Z,11.88
2022-12-03T08:17:42.644Z,12.25
2022-12-03T08:20:20.431Z,11.57
2022-12-03T08:22:49.995Z,11.82
2022-12-03T08:25:20.492Z,11.77
2022-12-03T08:27:48.575Z,13.60
2022-12-03T08:30:16.452Z,11.35
2022-12-03T08:32:44.432Z,8.00
2022-12-03T08:35:32.286Z,12.27
2022-12-03T08:38:02.587Z,12.25
2022-12-03T08:40:35.810Z,10.07
2022-12-03T08:43:19.145Z,8.13
2022-12-03T08:45:49.826Z,10.15
2022-12-03T08:48:23.501Z,10.05
2022-12-03T08:50:51.381Z,10.05
2022-12-03T08:53:29.584Z,9.82
2022-12-03T08:56:01.432Z,10.00
2022-12-03T08:58:39.407Z,11.00
2022-12-03T09:01:10.717Z,11.50
2022-12-03T09:03:47.171Z,9.07
2022-12-03T09:06:14.891Z,10.20
2022-12-03T09:08:42.829Z,6.97
2022-12-03T09:11:10.968Z,5.07
2022-12-03T09:13:38.906Z,8.02
2022-12-03T09:16:06.842Z,8.38
2022-12-03T09:18:34.510Z,6.88
2022-12-03T09:21:02.173Z,9.43
2022-12-03T09:23:30.093Z,5.35
2022-12-03T09:25:59.835Z,8.40
2022-12-03T09:28:27.489Z,8.55
2022-12-03T09:30:55.450Z,5.93
2022-12-03T09:33:23.301Z,5.30
2022-12-03T09:35:51.374Z,4.82
2022-12-03T09:38:19.133Z,5.18
2022-12-03T09:40:47.182Z,6.65
2022-12-03T09:43:14.839Z,6.47
2022-12-03T09:45:45.633Z,6.95
2022-12-03T09:48:15.243Z,7.50
2022-12-03T09:50:42.946Z,7.13
2022-12-03T09:53:18.315Z,6.25
2022-12-03T09:55:46.691Z,5.97
2022-12-03T09:58:16.503Z,5.55
2022-12-03T10:00:49.101Z,5.75
2022-12-03T10:03:18.288Z,4.82
2022-12-03T10:05:48.161Z,5.57
2022-12-03T10:08:21.047Z,6.18
2022-12-03T10:10:54.231Z,6.07
2022-12-03T10:13:31.362Z,5.97
2022-12-03T10:15:59.797Z,6.95
2022-12-03T10:18:30.811Z,6.03
2022-12-03T10:20:58.942Z,4.90
2022-12-03T10:23:28.206Z,5.18
2022-12-03T10:26:05.395Z,4.63
2022-12-03T10:28:34.957Z,7.05
2022-12-03T10:31:04.763Z,5.05
2022-12-03T10:33:34.577Z,6.80
2022-12-03T10:36:18.670Z,7.43
2022-12-03T10:38:47.474Z,7.72
2022-12-03T10:41:28.117Z,6.80
2022-12-03T10:44:15.722Z,7.23
2022-12-03T10:46:44.286Z,7.97
2022-12-03T10:49:18.713Z,7.45
2022-12-03T10:51:46.720Z,8.38
2022-12-03T10:54:24.195Z,9.23
2022-12-03T10:56:52.415Z,8.15
2022-12-03T10:59:22.101Z,8.25
2022-12-03T11:01:50.375Z,7.30
2022-12-03T11:04:30.925Z,7.10
2022-12-03T11:06:58.575Z,7.88
2022-12-03T11:09:28.482Z,6.57
2022-12-03T11:11:56.267Z,6.22
2022-12-03T11:14:49.089Z,5.63
2022-12-03T11:17:45.396Z,5.22
2022-12-03T11:20:25.257Z,7.20
2022-12-03T11:22:56.242Z,8.15
2022-12-03T11:25:27.231Z,7.47
2022-12-03T11:28:27.610Z,5.50
2022-12-03T11:31:02.483Z,6.32
2022-12-03T11:33:34.614Z,7.10
2022-12-03T11:36:05.625Z,5.20
2022-12-03T11:38:52.387Z,4.15
2022-12-03T11:41:29.061Z,4.53
2022-12-03T11:44:26.357Z,4.50
2022-12-03T11:46:54.142Z,3.50
2022-12-03T11:49:36.468Z,3.55
2022-12-03T11:52:18.171Z,3.03
2022-12-03T11:54:45.920Z,4.30
2022-12-03T11:57:33.068Z,5.18
2022-12-03T12:00:05.396Z,4.25
2022-12-03T12:02:39.718Z,4.70
2022-12-03T12:05:18.884Z,4.10
2022-12-03T12:07:48.268Z,3.58
2022-12-03T12:10:44.262Z,4.13
2022-12-03T12:13:30.722Z,3.63
2022-12-03T12:15:59.456Z,3.25
2022-12-03T12:18:46.713Z,3.10
2022-12-03T12:21:42.999Z,3.20
2022-12-03T12:24:32.438Z,2.90
2022-12-03T12:27:07.013Z,2.10
2022-12-03T12:29:35.428Z,2.20
2022-12-03T12:32:09.613Z,2.60
2022-12-03T12:34:38.588Z,1.80
2022-12-03T12:37:14.614Z,1.77
2022-12-03T12:39:43.671Z,2.15
2022-12-03T12:42:30.735Z,1.80
2022-12-03T12:45:19.688Z,1.70
2022-12-03T12:48:13.622Z,2.10
2022-12-03T12:50:42.704Z,2.10
2022-12-03T12:53:25.690Z,2.40
2022-12-03T12:56:25.790Z,2.78
2022-12-03T12:58:54.108Z,2.63
2022-12-03T13:01:25.246Z,2.38
2022-12-03T13:03:53.157Z,2.65
2022-12-03T13:06:28.365Z,2.45
2022-12-03T13:08:56.137Z,2.30
2022-12-03T13:11:23.694Z,2.05
2022-12-03T13:13:51.803Z,2.58
2022-12-03T13:16:23.452Z,3.15
2022-12-03T13:18:55.950Z,2.85
2022-12-03T13:21:45.218Z,3.03
2022-12-03T13:24:32.625Z,2.58
2022-12-03T13:27:13.829Z,2.22
2022-12-03T13:29:41.708Z,2.60
2022-12-03T13:32:22.745Z,2.58
2022-12-03T13:34:50.843Z,2.97
2022-12-03T13:37:26.916Z,3.45
2022-12-03T13:39:58.096Z,3.05
2022-12-03T13:42:39.661Z,3.03
2022-12-03T13:45:15.109Z,3.42
2022-12-03T13:47:56.954Z,3.28
2022-12-03T13:50:37.031Z,4.13
2022-12-03T13:53:27.887Z,3.50
2022-12-03T13:56:15.854Z,3.13
2022-12-03T13:58:43.745Z,3.45
2022-12-03T14:01:11.654Z,3.38
2022-12-03T14:03:39.513Z,2.85
2022-12-03T14:06:07.366Z,3.50
2022-12-03T14:08:35.149Z,2.28
2022-12-03T14:11:02.917Z,3.22
2022-12-03T14:13:30.535Z,2.50
2022-12-03T14:15:58.173Z,4.03
2022-12-03T14:18:26.028Z,2.22
2022-12-03T14:20:53.626Z,2.47
2022-12-03T14:23:21.347Z,3.25
2022-12-03T14:25:49.049Z,3.72
2022-12-03T14:28:17.161Z,2.78
2022-12-03T14:30:44.846Z,3.15
2022-12-03T14:33:12.695Z,3.00
2022-12-03T14:35:40.361Z,4.50
2022-12-03T14:38:08.273Z,3.60
2022-12-03T14:40:35.908Z,3.13
2022-12-03T14:43:03.609Z,2.72
2022-12-03T14:45:31.259Z,2.38
2022-12-03T14:47:59.036Z,2.67
2022-12-03T14:50:26.720Z,3.33
2022-12-03T14:52:54.393Z,3.75
2022-12-03T14:55:22.067Z,3.60
2022-12-03T14:57:49.770Z,3.30
2022-12-03T15:00:18.045Z,3.22
2022-12-03T15:02:45.929Z,5.38
2022-12-03T15:05:13.610Z,6.20
2022-12-03T15:07:41.422Z,3.95
2022-12-03T15:10:09.552Z,4.05
2022-12-03T15:12:37.313Z,4.13
2022-12-03T15:18:18.810Z,3.45
2022-12-03T15:20:46.968Z,4.43
2022-12-03T15:23:15.022Z,3.42
2022-12-03T15:25:42.817Z,4.05
2022-12-03T15:28:10.548Z,3.90
2022-12-03T15:30:38.397Z,2.67
2022-12-03T15:33:06.587Z,4.20
2022-12-03T15:35:34.563Z,3.58
2022-12-03T15:38:02.333Z,3.20
2022-12-03T15:40:30.367Z,2.75
2022-12-03T15:42:58.374Z,3.72
2022-12-03T15:45:26.225Z,3.13
